createdAt,value
2018-03-31T00:02:15.494Z,7.10
2018-03-31T00:04:50.015Z,7.10
2018-03-31T00:07:22.174Z,7.10
2018-03-31T00:09:53.251Z,7.20
2018-03-31T00:12:22.124Z,7.20
2018-03-31T00:14:57.440Z,7.10
2018-03-31T00:17:27.038Z,7.00
2018-03-31T00:19:56.334Z,7.00
2018-03-31T00:22:25.598Z,6.90
2018-03-31T00:24:53.674Z,6.90
2018-03-31T00:27:25.692Z,6.90
2018-03-31T00:29:55.162Z,7.10
2018-03-31T00:32:23.718Z,7.30
2018-03-31T00:34:56.051Z,7.40
2018-03-31T00:37:25.556Z,7.40
2018-03-31T00:39:58.296Z,7.40
2018-03-31T00:42:29.886Z,7.40
2018-03-31T00:44:59.360Z,7.40
2018-03-31T00:47:37.694Z,7.30
2018-03-31T00:50:07.434Z,7.30
2018-03-31T00:52:37.930Z,7.30
2018-03-31T00:55:07.861Z,7.30
2018-03-31T00:57:37.620Z,7.30
2018-03-31T01:00:07.411Z,7.20
2018-03-31T01:02:38.234Z,7.20
2018-03-31T01:05:06.662Z,7.20
2018-03-31T01:07:54.135Z,7.20
2018-03-31T01:10:22.626Z,7.20
2018-03-31T01:12:57.526Z,7.20
2018-03-31T01:15:27.258Z,7.20
2018-03-31T01:18:09.806Z,7.30
2018-03-31T01:20:39.498Z,7.30
2018-03-31T01:23:12.242Z,7.30
2018-03-31T01:25:47.714Z,7.30
2018-03-31T01:28:17.494Z,7.30
2018-03-31T01:30:51.882Z,7.30
2018-03-31T01:33:20.622Z,7.30
2018-03-31T01:35:50.910Z,7.30
2018-03-31T01:38:19.386Z,7.30
2018-03-31T01:40:46.950Z,7.30
2018-03-31T01:43:16.256Z,7.30
2018-03-31T01:45:45.706Z,7.30
2018-03-31T01:48:15.002Z,7.30
2018-03-31T01:50:45.451Z,7.20
2018-03-31T01:55:51.385Z,7.20
2018-03-31T02:00:55.578Z,7.20
2018-03-31T02:21:21.782Z,7.10
2018-03-31T02:23:51.141Z,7.10
2018-03-31T02:26:22.786Z,7.10
2018-03-31T02:28:50.634Z,7.00
2018-03-31T02:31:19.947Z,7.00
2018-03-31T02:33:51.514Z,7.00
2018-03-31T02:36:19.396Z,7.00
2018-03-31T02:44:01.187Z,6.90
2018-03-31T02:46:35.618Z,6.90
2018-03-31T02:54:10.934Z,6.90
2018-03-31T02:59:15.047Z,6.80
2018-03-31T03:01:47.866Z,6.80
2018-03-31T03:04:20.171Z,6.80
2018-03-31T03:06:48.730Z,6.80
2018-03-31T03:09:22.825Z,6.80
2018-03-31T03:11:55.942Z,6.70
2018-03-31T03:14:24.969Z,6.70
2018-03-31T03:19:30.514Z,6.70
2018-03-31T03:24:39.238Z,6.60
2018-03-31T03:27:15.986Z,6.60
2018-03-31T03:29:50.426Z,6.60
2018-03-31T03:32:19.749Z,6.60
2018-03-31T03:37:24.518Z,6.50
2018-03-31T03:39:54.822Z,6.40
2018-03-31T03:42:22.569Z,6.40
2018-03-31T03:44:53.412Z,6.40
2018-03-31T03:47:23.914Z,6.40
2018-03-31T03:49:55.966Z,6.40
2018-03-31T03:52:26.962Z,6.30
2018-03-31T03:54:58.871Z,6.30
2018-03-31T03:57:27.676Z,6.30
2018-03-31T04:00:14.330Z,6.30
2018-03-31T04:02:44.534Z,6.30
2018-03-31T04:05:17.742Z,6.30
2018-03-31T04:07:52.425Z,6.30
2018-03-31T04:15:41.549Z,6.20
2018-03-31T04:18:12.954Z,6.20
2018-03-31T04:20:59.762Z,6.20
2018-03-31T04:23:31.782Z,6.30
2018-03-31T04:26:01.564Z,6.20
2018-03-31T04:28:29.942Z,6.30
2018-03-31T04:30:57.486Z,6.20
2018-03-31T04:33:31.174Z,6.20
2018-03-31T04:36:04.154Z,6.20
2018-03-31T04:38:32.449Z,6.10
2018-03-31T04:41:01.198Z,6.10
2018-03-31T04:43:35.013Z,6.10
2018-03-31T04:46:03.298Z,6.10
2018-03-31T04:48:31.613Z,6.10
2018-03-31T04:51:02.729Z,6.10
2018-03-31T04:53:32.221Z,6.10
2018-03-31T04:56:07.845Z,6.10
2018-03-31T04:58:56.749Z,6.10
2018-03-31T05:01:25.285Z,6.00
2018-03-31T05:03:52.818Z,6.00
2018-03-31T05:06:20.361Z,6.10
2018-03-31T05:08:47.905Z,6.00
2018-03-31T05:11:17.386Z,6.00
2018-03-31T05:13:46.669Z,5.90
2018-03-31T05:16:14.978Z,5.90
2018-03-31T05:18:45.993Z,5.90
2018-03-31T05:21:14.293Z,6.00
2018-03-31T05:23:41.825Z,6.00
2018-03-31T05:26:10.129Z,6.00
2018-03-31T05:28:37.657Z,6.00
2018-03-31T05:31:13.821Z,6.00
2018-03-31T05:33:48.370Z,6.00
2018-03-31T05:36:15.918Z,6.00
2018-03-31T05:38:46.429Z,6.00
2018-03-31T05:41:16.644Z,6.10
2018-03-31T05:43:48.625Z,6.10
2018-03-31T05:46:16.161Z,6.00
2018-03-31T05:48:44.469Z,6.10
2018-03-31T05:51:19.365Z,6.10
2018-03-31T05:53:51.034Z,6.10
2018-03-31T05:56:21.281Z,6.20
2018-03-31T05:58:57.013Z,6.10
2018-03-31T06:01:24.600Z,6.20
2018-03-31T06:03:53.213Z,6.20
2018-03-31T06:06:21.604Z,6.20
2018-03-31T06:08:49.149Z,6.30
2018-03-31T06:11:24.955Z,6.20
2018-03-31T06:13:52.482Z,6.30
2018-03-31T06:16:20.960Z,6.20
2018-03-31T06:18:54.884Z,6.30
2018-03-31T06:21:40.373Z,6.30
2018-03-31T06:24:10.993Z,6.30
2018-03-31T06:26:39.288Z,6.40
2018-03-31T06:29:06.833Z,6.40
2018-03-31T06:31:35.292Z,6.40
2018-03-31T06:34:05.568Z,6.40
2018-03-31T06:36:35.073Z,6.40
2018-03-31T06:39:03.598Z,6.40
2018-03-31T06:41:31.916Z,6.50
2018-03-31T06:44:03.333Z,6.50
2018-03-31T06:46:32.633Z,6.50
2018-03-31T06:49:06.453Z,6.50
2018-03-31T06:51:34.913Z,6.50
2018-03-31T06:54:03.225Z,6.60
2018-03-31T06:56:31.697Z,6.50
2018-03-31T06:59:03.021Z,6.50
2018-03-31T07:01:36.421Z,6.50
2018-03-31T07:04:04.721Z,6.50
2018-03-31T07:06:38.704Z,6.50
2018-03-31T07:09:13.233Z,6.60
2018-03-31T07:11:47.758Z,6.50
2018-03-31T07:14:24.304Z,6.50
2018-03-31T07:17:00.260Z,6.60
2018-03-31T07:22:24.172Z,6.60
2018-03-31T07:24:52.804Z,6.90
2018-03-31T07:27:20.368Z,7.00
2018-03-31T07:29:52.269Z,7.00
2018-03-31T07:32:23.918Z,6.90
2018-03-31T07:35:00.424Z,7.00
2018-03-31T07:37:38.189Z,7.00
2018-03-31T07:40:14.596Z,7.00
2018-03-31T07:42:47.332Z,7.00
2018-03-31T07:45:15.632Z,7.20
2018-03-31T07:47:45.104Z,7.20
2018-03-31T07:50:17.897Z,7.40
2018-03-31T07:52:48.079Z,7.50
2018-03-31T07:55:26.928Z,7.50
2018-03-31T07:58:14.524Z,7.40
2018-03-31T08:00:49.484Z,7.30
2018-03-31T08:03:17.884Z,7.30
2018-03-31T08:05:52.516Z,7.50
2018-03-31T08:08:27.992Z,7.50
2018-03-31T08:11:13.628Z,7.50
2018-03-31T08:13:43.829Z,7.70
2018-03-31T08:16:15.196Z,7.70
2018-03-31T08:18:47.768Z,8.10
2018-03-31T08:21:23.418Z,8.10
2018-03-31T08:26:50.827Z,7.60
2018-03-31T08:35:10.712Z,8.00
2018-03-31T08:37:58.249Z,7.90
2018-03-31T08:40:34.900Z,8.10
2018-03-31T08:43:12.712Z,8.10
2018-03-31T08:45:55.535Z,7.80
2018-03-31T08:48:33.328Z,7.70
2018-03-31T08:51:05.879Z,7.60
2018-03-31T08:53:47.504Z,7.60
2018-03-31T08:56:15.020Z,7.60
2018-03-31T08:58:47.851Z,7.50
2018-03-31T09:01:26.354Z,7.60
2018-03-31T09:03:56.597Z,7.70
2018-03-31T09:06:24.056Z,7.70
2018-03-31T09:08:52.488Z,7.80
2018-03-31T09:11:23.951Z,8.00
2018-03-31T09:16:58.007Z,8.10
2018-03-31T09:19:27.475Z,8.20
2018-03-31T09:21:57.010Z,8.10
2018-03-31T09:24:28.519Z,8.10
2018-03-31T09:27:02.115Z,8.50
2018-03-31T09:29:30.615Z,8.70
2018-03-31T09:31:58.127Z,8.80
2018-03-31T09:34:26.636Z,8.70
2018-03-31T09:36:57.455Z,8.70
2018-03-31T09:39:24.976Z,8.90
2018-03-31T09:41:54.404Z,8.60
2018-03-31T09:44:21.927Z,8.80
2018-03-31T09:46:50.254Z,9.40
2018-03-31T09:49:24.236Z,9.40
2018-03-31T09:51:56.867Z,9.50
2018-03-31T09:57:24.076Z,9.20
2018-03-31T09:59:52.511Z,9.10
2018-03-31T10:02:26.327Z,9.70
2018-03-31T10:05:08.859Z,10.10
2018-03-31T10:07:36.393Z,10.30
2018-03-31T10:10:03.923Z,10.30
2018-03-31T10:12:32.342Z,10.00
2018-03-31T10:15:01.539Z,9.80
2018-03-31T10:17:36.035Z,9.60
2018-03-31T10:20:06.771Z,9.60
2018-03-31T10:22:36.924Z,10.00
2018-03-31T10:25:10.799Z,10.20
2018-03-31T10:27:41.123Z,10.20
2018-03-31T10:30:11.655Z,10.60
2018-03-31T10:32:45.360Z,10.90
2018-03-31T10:35:12.894Z,11.00
2018-03-31T10:37:45.507Z,11.30
2018-03-31T10:40:13.803Z,10.50
2018-03-31T10:42:41.321Z,10.50
2018-03-31T10:45:09.807Z,10.30
2018-03-31T10:47:39.948Z,10.60
2018-03-31T10:50:08.260Z,10.70
2018-03-31T10:52:36.826Z,10.60
2018-03-31T10:55:05.271Z,10.70
2018-03-31T10:57:34.523Z,11.60
2018-03-31T11:00:08.438Z,11.60
2018-03-31T11:02:41.087Z,11.40
2018-03-31T11:05:09.155Z,11.20
2018-03-31T11:07:36.707Z,11.00
2018-03-31T11:10:04.267Z,10.90
2018-03-31T11:12:35.245Z,11.10
2018-03-31T11:15:02.784Z,11.70
2018-03-31T11:17:31.331Z,11.10
2018-03-31T11:19:59.802Z,10.90
2018-03-31T11:22:30.051Z,11.20
2018-03-31T11:25:09.971Z,11.10
2018-03-31T11:27:38.283Z,11.70
2018-03-31T11:30:05.855Z,11.60
2018-03-31T11:32:33.367Z,12.70
2018-03-31T11:35:02.879Z,13.10
2018-03-31T11:37:33.147Z,12.30
2018-03-31T11:40:00.688Z,12.30
2018-03-31T11:42:30.190Z,12.10
2018-03-31T11:44:57.872Z,11.70
2018-03-31T11:47:25.446Z,11.30
2018-03-31T11:49:54.979Z,11.40
2018-03-31T11:52:29.203Z,11.30
2018-03-31T11:54:58.502Z,11.10
2018-03-31T11:57:30.668Z,11.70
2018-03-31T12:00:01.723Z,11.70
2018-03-31T12:02:33.263Z,12.20
2018-03-31T12:05:00.782Z,12.90
2018-03-31T12:07:33.875Z,13.00
2018-03-31T12:10:01.403Z,12.50
2018-03-31T12:12:30.866Z,12.50
2018-03-31T12:15:00.303Z,12.40
2018-03-31T12:17:27.838Z,12.60
2018-03-31T12:20:04.686Z,13.60
2018-03-31T12:22:32.259Z,13.50
2018-03-31T12:25:01.776Z,15.00
2018-03-31T12:27:30.227Z,16.00
2018-03-31T12:29:59.654Z,17.60
2018-03-31T12:32:28.870Z,16.70
2018-03-31T12:34:56.398Z,16.70
2018-03-31T12:37:23.914Z,17.70
2018-03-31T12:39:51.444Z,18.20
2018-03-31T12:42:20.926Z,17.40
2018-03-31T12:44:48.519Z,15.80
2018-03-31T12:47:16.862Z,15.30
2018-03-31T12:49:47.079Z,13.30
2018-03-31T12:52:20.452Z,13.20
2018-03-31T12:54:47.966Z,13.40
2018-03-31T12:57:22.094Z,13.30
2018-03-31T12:59:49.591Z,13.30
2018-03-31T13:02:17.114Z,13.20
2018-03-31T13:04:44.626Z,12.90
2018-03-31T13:07:12.158Z,12.90
2018-03-31T13:09:40.643Z,13.50
2018-03-31T13:12:10.158Z,14.80
2018-03-31T13:14:42.534Z,14.70
2018-03-31T13:17:11.006Z,13.60
2018-03-31T13:19:39.430Z,13.20
2018-03-31T13:22:08.866Z,12.80
2018-03-31T13:24:36.394Z,12.50
2018-03-31T13:27:03.926Z,12.30
2018-03-31T13:29:33.191Z,12.10
2018-03-31T13:32:01.686Z,12.10
2018-03-31T13:34:30.994Z,12.50
2018-03-31T13:36:59.282Z,13.00
2018-03-31T13:39:26.837Z,13.00
2018-03-31T13:41:56.346Z,13.10
2018-03-31T13:44:24.806Z,13.10
2018-03-31T13:46:59.922Z,15.40
2018-03-31T13:49:27.450Z,15.40
2018-03-31T13:51:55.874Z,15.50
2018-03-31T13:54:26.494Z,14.60
2018-03-31T13:56:57.230Z,13.80
2018-03-31T13:59:30.582Z,12.80
2018-03-31T14:01:58.114Z,12.00
2018-03-31T14:04:25.651Z,11.30
2018-03-31T14:06:53.921Z,10.70
2018-03-31T14:09:36.126Z,10.40
2018-03-31T14:12:09.838Z,10.00
2018-03-31T14:14:43.462Z,9.50
2018-03-31T14:17:11.870Z,9.40
2018-03-31T14:19:42.714Z,9.10
2018-03-31T14:22:10.209Z,8.80
2018-03-31T14:24:38.486Z,8.50
2018-03-31T14:27:11.546Z,8.40
2018-03-31T14:29:39.058Z,8.40
2018-03-31T14:35:03.046Z,8.60
2018-03-31T14:37:30.569Z,8.70
2018-03-31T14:40:01.705Z,8.70
2018-03-31T14:42:32.347Z,8.90
2018-03-31T14:45:11.974Z,9.40
2018-03-31T14:47:50.606Z,9.40
2018-03-31T14:50:32.434Z,9.60
2018-03-31T14:53:01.897Z,9.60
2018-03-31T14:55:30.412Z,9.70
2018-03-31T14:58:22.957Z,9.80
2018-03-31T15:00:51.390Z,9.70
2018-03-31T15:03:38.552Z,9.60
2018-03-31T15:06:12.086Z,9.30
2018-03-31T15:08:53.410Z,9.20
2018-03-31T15:11:23.582Z,9.00
2018-03-31T15:13:51.105Z,9.00
2018-03-31T15:16:22.260Z,9.00
2018-03-31T15:18:49.733Z,9.00
2018-03-31T15:21:19.191Z,9.00
2018-03-31T15:23:49.451Z,9.00
2018-03-31T15:26:32.226Z,9.00
2018-03-31T15:29:01.629Z,8.90
2018-03-31T15:31:29.145Z,8.90
2018-03-31T15:33:56.666Z,9.00
2018-03-31T15:36:42.006Z,8.90
2018-03-31T15:39:11.413Z,8.90
2018-03-31T15:41:39.718Z,8.80
2018-03-31T15:44:08.217Z,8.80
2018-03-31T15:46:45.593Z,8.80
2018-03-31T15:49:13.117Z,8.80
2018-03-31T15:51:52.690Z,8.70
2018-03-31T15:54:28.257Z,8.70
2018-03-31T15:56:56.790Z,8.60
2018-03-31T15:59:25.191Z,8.60
2018-03-31T16:01:53.589Z,8.60
2018-03-31T16:04:23.025Z,8.60
2018-03-31T16:06:51.520Z,8.60
2018-03-31T16:09:19.925Z,8.60
2018-03-31T16:11:48.201Z,8.60
2018-03-31T16:14:24.993Z,8.50
2018-03-31T16:17:02.245Z,8.50
2018-03-31T16:19:35.243Z,8.40
2018-03-31T16:22:10.177Z,8.30
2018-03-31T16:24:41.736Z,8.30
2018-03-31T16:27:12.233Z,8.20
2018-03-31T16:29:45.845Z,8.20
2018-03-31T16:32:19.461Z,8.20
2018-03-31T16:34:49.756Z,8.10
2018-03-31T16:37:20.676Z,8.10
2018-03-31T16:40:11.693Z,8.00
2018-03-31T16:42:39.165Z,7.90
2018-03-31T16:45:18.181Z,7.80
2018-03-31T16:47:52.721Z,7.80
2018-03-31T16:50:29.285Z,7.70
2018-03-31T16:53:01.805Z,7.70
2018-03-31T16:55:35.218Z,7.80
2018-03-31T16:58:02.752Z,7.80
2018-03-31T17:00:35.400Z,7.90
2018-03-31T17:03:07.027Z,7.90
2018-03-31T17:05:34.556Z,7.90
2018-03-31T17:08:05.121Z,7.90
2018-03-31T17:10:42.721Z,7.80
2018-03-31T17:13:35.901Z,7.70
2018-03-31T17:16:25.509Z,7.40
2018-03-31T17:18:56.721Z,7.40
2018-03-31T17:21:35.228Z,7.20
2018-03-31T17:24:13.840Z,7.10
2018-03-31T17:27:00.885Z,7.00
2018-03-31T17:29:28.466Z,7.00
2018-03-31T17:31:59.162Z,7.00
2018-03-31T17:34:27.472Z,6.70
2018-03-31T17:36:56.943Z,6.70
2018-03-31T17:39:35.836Z,6.60
2018-03-31T17:42:04.253Z,6.60
2018-03-31T17:44:36.484Z,6.30
2018-03-31T17:47:07.942Z,6.30
2018-03-31T17:49:35.465Z,6.30
2018-03-31T17:52:03.004Z,6.30
2018-03-31T17:54:36.620Z,6.20
2018-03-31T17:57:14.216Z,6.20
2018-03-31T17:59:42.649Z,6.20
2018-03-31T18:02:11.832Z,6.00
2018-03-31T18:04:50.216Z,6.00
2018-03-31T18:07:18.632Z,6.00
2018-03-31T18:09:47.948Z,5.80
2018-03-31T18:12:16.401Z,5.70
2018-03-31T18:14:44.949Z,5.70
2018-03-31T18:17:16.368Z,5.40
2018-03-31T18:19:44.781Z,5.40
2018-03-31T18:22:15.444Z,5.30
2018-03-31T18:24:43.884Z,5.20
2018-03-31T18:27:12.304Z,5.10
2018-03-31T18:29:40.736Z,5.00
2018-03-31T18:32:13.600Z,4.90
2018-03-31T18:34:43.361Z,4.70
2018-03-31T18:37:10.896Z,4.50
2018-03-31T18:39:40.360Z,4.30
2018-03-31T18:42:08.875Z,4.10
2018-03-31T18:44:39.946Z,3.90
2018-03-31T18:47:11.648Z,3.80
2018-03-31T18:52:18.291Z,3.60
2018-03-31T18:54:51.473Z,3.40
2018-03-31T18:57:23.376Z,3.20
2018-03-31T18:59:52.156Z,3.00
2018-03-31T19:02:26.620Z,2.90
2018-03-31T19:04:55.212Z,2.80
2018-03-31T19:07:26.404Z,2.80
2018-03-31T19:09:55.976Z,2.70
2018-03-31T19:12:24.072Z,2.60
2018-03-31T19:14:51.749Z,2.60
2018-03-31T19:17:26.615Z,2.60
2018-03-31T19:19:57.148Z,2.60
2018-03-31T19:22:27.959Z,2.60
2018-03-31T19:25:01.392Z,2.50
2018-03-31T19:27:30.909Z,2.40
2018-03-31T19:29:58.488Z,2.30
2018-03-31T19:32:27.327Z,2.20
2018-03-31T19:34:58.871Z,2.10
2018-03-31T19:37:27.408Z,2.00
2018-03-31T19:40:02.292Z,2.00
2018-03-31T19:42:33.836Z,2.10
2018-03-31T19:45:03.402Z,2.10
2018-03-31T19:47:34.211Z,2.00
2018-03-31T19:50:08.391Z,2.00
2018-03-31T19:52:38.263Z,2.00
2018-03-31T19:55:18.331Z,2.10
2018-03-31T19:57:50.299Z,2.10
2018-03-31T20:00:21.832Z,2.10
2018-03-31T20:03:01.348Z,2.10
2018-03-31T20:13:24.048Z,2.30
2018-03-31T20:15:55.998Z,2.30
2018-03-31T20:18:25.387Z,2.40
2018-03-31T20:21:00.799Z,2.50
2018-03-31T20:23:28.502Z,2.60
2018-03-31T20:25:58.272Z,2.60
2018-03-31T20:28:25.888Z,2.60
2018-03-31T20:30:54.411Z,2.60
2018-03-31T20:33:21.972Z,2.50
2018-03-31T20:35:51.529Z,2.50
2018-03-31T20:38:19.067Z,2.50
2018-03-31T20:40:47.507Z,2.60
2018-03-31T20:43:15.072Z,2.60
2018-03-31T20:45:45.726Z,2.60
2018-03-31T20:48:14.223Z,2.70
2018-03-31T20:50:44.479Z,2.40
2018-03-31T20:53:12.783Z,2.30
2018-03-31T20:55:40.303Z,2.20
2018-03-31T20:58:11.851Z,2.10
2018-03-31T21:00:39.420Z,2.00
2018-03-31T21:03:10.879Z,1.80
2018-03-31T21:05:39.380Z,1.80
2018-03-31T21:08:08.974Z,1.80
2018-03-31T21:10:45.079Z,1.70
2018-03-31T21:13:14.215Z,1.70
2018-03-31T21:15:47.226Z,1.60
2018-03-31T21:18:14.775Z,1.40
2018-03-31T21:20:44.098Z,1.40
2018-03-31T21:23:12.391Z,1.30
2018-03-31T21:25:39.903Z,1.30
2018-03-31T21:28:08.535Z,1.30
2018-03-31T21:30:41.695Z,1.20
2018-03-31T21:33:09.248Z,1.20
2018-03-31T21:35:37.767Z,1.30
2018-03-31T21:38:06.204Z,1.50
2018-03-31T21:40:34.608Z,1.50
2018-03-31T21:43:02.152Z,1.50
2018-03-31T21:45:29.700Z,1.70
2018-03-31T21:47:57.227Z,1.60
2018-03-31T21:50:25.751Z,1.50
2018-03-31T21:52:53.643Z,1.40
2018-03-31T21:55:24.984Z,1.20
2018-03-31T21:57:54.783Z,1.10
2018-03-31T22:00:23.339Z,0.90
2018-03-31T22:02:51.592Z,0.80
2018-03-31T22:05:20.287Z,0.80
2018-03-31T22:07:48.607Z,0.70
2018-03-31T22:10:18.199Z,0.70
2018-03-31T22:12:49.875Z,0.80
2018-03-31T22:15:27.956Z,0.90
2018-03-31T22:17:56.423Z,1.00
2018-03-31T22:20:28.571Z,1.20
2018-03-31T22:22:59.311Z,1.20
2018-03-31T22:28:04.728Z,1.50
2018-03-31T22:33:05.063Z,1.50
2018-03-31T22:35:34.093Z,1.40
2018-03-31T22:38:03.332Z,1.40
2018-03-31T22:40:39.127Z,1.30
2018-03-31T22:43:10.155Z,1.30
2018-03-31T22:45:38.642Z,1.40
2018-03-31T22:55:44.655Z,1.40
2018-03-31T23:03:25.663Z,1.60
2018-03-31T23:05:54.934Z,1.50
2018-03-31T23:08:23.475Z,1.50
2018-03-31T23:10:53.094Z,1.50
2018-03-31T23:13:20.685Z,1.50
2018-03-31T23:15:48.187Z,1.50
2018-03-31T23:18:16.518Z,1.60
2018-03-31T23:20:44.047Z,1.60
2018-03-31T23:23:14.431Z,1.80
2018-03-31T23:25:47.794Z,1.90
2018-03-31T23:28:15.683Z,2.00
2018-03-31T23:33:16.554Z,1.90
2018-03-31T23:35:45.851Z,1.90
2018-03-31T23:38:14.358Z,1.90
2018-03-31T23:40:44.550Z,2.00
2018-03-31T23:43:13.035Z,2.00
2018-03-31T23:45:41.518Z,2.10
2018-03-31T23:48:10.027Z,2.10
2018-03-31T23:50:37.559Z,2.10
2018-03-31T23:53:09.931Z,2.10
2018-03-31T23:55:37.519Z,2.10
2018-03-31T23:58:08.042Z,1.90
